createdAt,value
2019-04-20T00:00:44.100Z,13.39
2019-04-20T00:03:08.133Z,13.47
2019-04-20T00:05:35.435Z,13.38
2019-04-20T00:08:09.892Z,13.38
2019-04-20T00:10:43.336Z,13.26
2019-04-20T00:13:13.807Z,13.17
2019-04-20T00:15:30.707Z,13.21
2019-04-20T00:18:01.838Z,13.29
2019-04-20T00:20:32.031Z,13.23
2019-04-20T00:23:19.735Z,13.29
2019-04-20T00:26:13.166Z,13.29
2019-04-20T00:28:51.091Z,13.21
2019-04-20T00:31:20.855Z,13.25
2019-04-20T00:33:42.267Z,13.13
2019-04-20T00:36:01.129Z,13.01
2019-04-20T00:38:36.182Z,12.86
2019-04-20T00:41:02.749Z,12.80
2019-04-20T00:43:32.319Z,12.79
2019-04-20T00:46:04.918Z,12.75
2019-04-20T00:48:40.092Z,12.74
2019-04-20T00:51:16.840Z,12.51
2019-04-20T00:53:31.415Z,12.64
2019-04-20T00:55:53.152Z,12.75
2019-04-20T00:58:29.957Z,12.78
2019-04-20T01:01:17.007Z,12.74
2019-04-20T01:03:33.990Z,12.82
2019-04-20T01:06:19.320Z,12.76
2019-04-20T01:08:34.019Z,12.67
2019-04-20T01:11:02.715Z,12.68
2019-04-20T01:13:31.757Z,12.76
2019-04-20T01:16:06.369Z,12.61
2019-04-20T01:18:28.511Z,12.79
2019-04-20T01:20:58.091Z,12.89
2019-04-20T01:23:34.597Z,12.65
2019-04-20T01:26:00.243Z,12.53
2019-04-20T01:28:37.486Z,12.64
2019-04-20T01:31:06.464Z,12.73
2019-04-20T01:33:31.818Z,12.64
2019-04-20T01:36:02.812Z,12.62
2019-04-20T01:38:34.691Z,12.47
2019-04-20T01:40:50.589Z,12.59
2019-04-20T01:43:18.427Z,12.56
2019-04-20T01:45:47.322Z,12.64
2019-04-20T01:48:22.043Z,12.44
2019-04-20T01:50:55.949Z,12.50
2019-04-20T01:53:29.215Z,12.16
2019-04-20T01:56:01.453Z,12.32
2019-04-20T01:58:39.806Z,12.38
2019-04-20T02:01:21.001Z,12.47
2019-04-20T02:03:56.873Z,12.39
2019-04-20T02:06:26.775Z,12.53
2019-04-20T02:09:00.308Z,12.58
2019-04-20T02:11:30.129Z,12.45
2019-04-20T02:13:56.611Z,12.45
2019-04-20T02:16:28.930Z,12.47
2019-04-20T02:19:09.264Z,12.54
2019-04-20T02:21:37.917Z,12.65
2019-04-20T02:23:55.561Z,12.54
2019-04-20T02:26:19.954Z,12.58
2019-04-20T02:29:13.450Z,12.49
2019-04-20T02:32:05.048Z,12.43
2019-04-20T02:34:32.750Z,12.53
2019-04-20T02:39:44.454Z,12.53
2019-04-20T02:42:19.768Z,12.42
2019-04-20T02:47:07.912Z,12.32
2019-04-20T02:49:35.396Z,12.31
2019-04-20T02:54:26.500Z,12.08
2019-04-20T02:59:56.294Z,12.19
2019-04-20T03:01:52.159Z,12.20
2019-04-20T03:04:04.979Z,12.20
2019-04-20T03:06:39.999Z,12.19
2019-04-20T03:09:20.147Z,12.19
2019-04-20T03:11:59.349Z,12.01
2019-04-20T03:14:16.362Z,12.06
2019-04-20T03:16:43.722Z,12.11
2019-04-20T03:19:14.116Z,11.89
2019-04-20T03:21:51.413Z,11.87
2019-04-20T03:24:20.449Z,11.84
2019-04-20T03:26:40.307Z,11.84
2019-04-20T03:29:40.811Z,11.91
2019-04-20T03:37:28.014Z,11.85
2019-04-20T03:39:40.546Z,11.87
2019-04-20T03:41:58.415Z,11.88
2019-04-20T03:44:27.798Z,11.83
2019-04-20T03:46:59.682Z,11.84
2019-04-20T03:49:48.307Z,11.75
2019-04-20T03:52:28.799Z,11.70
2019-04-20T03:55:19.995Z,11.59
2019-04-20T03:58:17.155Z,11.72
2019-04-20T04:00:45.902Z,11.63
2019-04-20T04:03:34.942Z,11.68
2019-04-20T04:05:55.968Z,11.46
2019-04-20T04:08:21.207Z,11.57
2019-04-20T04:11:01.455Z,11.53
2019-04-20T04:13:12.883Z,11.58
2019-04-20T04:15:48.763Z,11.40
2019-04-20T04:18:19.689Z,11.37
2019-04-20T04:20:50.054Z,11.34
2019-04-20T04:23:29.615Z,11.40
2019-04-20T04:26:00.873Z,11.35
2019-04-20T04:28:28.520Z,11.53
2019-04-20T04:31:04.152Z,11.28
2019-04-20T04:35:56.590Z,11.40
2019-04-20T04:38:35.939Z,11.45
2019-04-20T04:41:08.473Z,11.40
2019-04-20T04:43:25.778Z,11.43
2019-04-20T04:45:38.630Z,11.43
2019-04-20T04:48:13.082Z,11.58
2019-04-20T04:50:44.588Z,11.51
2019-04-20T04:53:11.964Z,11.48
2019-04-20T04:55:43.934Z,11.48
2019-04-20T04:58:04.374Z,11.64
2019-04-20T05:00:34.190Z,11.62
2019-04-20T05:03:23.303Z,11.74
2019-04-20T05:06:13.341Z,11.98
2019-04-20T05:08:30.744Z,12.00
2019-04-20T05:10:52.052Z,12.08
2019-04-20T05:13:19.938Z,12.14
2019-04-20T05:16:00.397Z,12.13
2019-04-20T05:18:43.502Z,12.25
2019-04-20T05:21:11.907Z,12.29
2019-04-20T05:23:44.613Z,12.37
2019-04-20T05:26:30.066Z,12.46
2019-04-20T05:28:52.753Z,12.41
2019-04-20T05:31:13.278Z,12.62
2019-04-20T05:34:04.170Z,12.79
2019-04-20T05:36:28.204Z,12.76
2019-04-20T05:39:05.142Z,12.71
2019-04-20T05:41:26.513Z,12.77
2019-04-20T05:43:59.724Z,12.70
2019-04-20T05:46:32.351Z,12.85
2019-04-20T05:49:03.149Z,13.03
2019-04-20T05:51:36.447Z,13.22
2019-04-20T05:54:05.636Z,13.20
2019-04-20T05:56:35.869Z,13.36
2019-04-20T05:58:59.596Z,13.50
2019-04-20T06:01:34.402Z,13.45
2019-04-20T06:03:59.397Z,13.77
2019-04-20T06:06:33.181Z,13.60
2019-04-20T06:09:08.778Z,13.78
2019-04-20T06:11:26.680Z,13.79
2019-04-20T06:14:07.112Z,14.13
2019-04-20T06:17:17.039Z,14.16
2019-04-20T06:19:39.468Z,14.26
2019-04-20T06:22:35.211Z,14.26
2019-04-20T06:25:31.618Z,14.59
2019-04-20T06:27:46.738Z,14.57
2019-04-20T06:30:05.949Z,14.89
2019-04-20T06:33:24.257Z,15.01
2019-04-20T06:36:06.028Z,14.84
2019-04-20T06:38:40.300Z,15.08
2019-04-20T06:40:59.408Z,14.99
2019-04-20T06:43:13.207Z,15.17
2019-04-20T06:45:51.322Z,15.18
2019-04-20T06:48:20.452Z,15.34
2019-04-20T06:50:38.486Z,15.35
2019-04-20T06:53:31.899Z,15.26
2019-04-20T06:55:59.096Z,15.42
2019-04-20T06:58:42.018Z,15.17
2019-04-20T07:00:56.364Z,15.17
2019-04-20T07:03:37.321Z,15.46
2019-04-20T07:06:06.344Z,15.81
2019-04-20T07:08:45.104Z,15.74
2019-04-20T07:10:58.033Z,15.82
2019-04-20T07:13:15.367Z,15.83
2019-04-20T07:15:54.458Z,16.16
2019-04-20T07:18:30.001Z,16.21
2019-04-20T07:20:59.287Z,16.55
2019-04-20T07:23:31.257Z,16.77
2019-04-20T07:26:02.142Z,16.63
2019-04-20T07:28:32.731Z,16.83
2019-04-20T07:30:56.918Z,16.75
2019-04-20T07:33:32.516Z,16.43
2019-04-20T07:35:56.300Z,16.52
2019-04-20T07:40:56.008Z,16.83
2019-04-20T07:43:26.876Z,16.84
2019-04-20T07:45:51.626Z,17.01
2019-04-20T07:48:21.192Z,17.06
2019-04-20T07:50:45.004Z,16.85
2019-04-20T07:53:16.704Z,16.94
2019-04-20T07:55:54.208Z,17.21
2019-04-20T07:58:10.803Z,17.43
2019-04-20T08:03:33.658Z,17.30
2019-04-20T08:06:11.605Z,17.33
2019-04-20T08:08:50.456Z,17.58
2019-04-20T08:11:23.443Z,17.56
2019-04-20T08:13:51.298Z,17.65
2019-04-20T08:16:23.139Z,17.79
2019-04-20T08:18:55.473Z,17.99
2019-04-20T08:21:25.667Z,17.86
2019-04-20T08:23:48.942Z,17.84
2019-04-20T08:26:09.076Z,17.94
2019-04-20T08:28:44.692Z,17.64
2019-04-20T08:31:40.670Z,17.61
2019-04-20T08:34:26.495Z,17.94
2019-04-20T08:36:51.487Z,18.28
2019-04-20T08:39:35.784Z,18.65
2019-04-20T08:41:53.586Z,18.40
2019-04-20T08:44:42.661Z,18.77
2019-04-20T08:47:01.827Z,18.98
2019-04-20T08:49:26.352Z,18.90
2019-04-20T08:51:55.737Z,18.63
2019-04-20T08:54:12.493Z,18.76
2019-04-20T08:56:33.748Z,18.99
2019-04-20T08:58:53.305Z,19.10
2019-04-20T09:01:25.755Z,19.34
2019-04-20T09:03:58.963Z,19.07
2019-04-20T09:06:33.293Z,19.18
2019-04-20T09:09:03.683Z,19.19
2019-04-20T09:11:41.879Z,19.50
2019-04-20T09:13:51.986Z,19.53
2019-04-20T09:16:19.939Z,19.58
2019-04-20T09:18:53.198Z,19.55
2019-04-20T09:21:24.306Z,19.83
2019-04-20T09:24:11.804Z,19.96
2019-04-20T09:26:32.773Z,19.82
2019-04-20T09:28:59.197Z,19.99
2019-04-20T09:31:52.127Z,20.16
2019-04-20T09:34:42.666Z,20.35
2019-04-20T09:37:25.973Z,20.04
2019-04-20T09:40:06.069Z,20.36
2019-04-20T09:42:16.237Z,20.20
2019-04-20T09:44:47.784Z,20.28
2019-04-20T09:47:14.010Z,20.49
2019-04-20T09:49:51.916Z,20.58
2019-04-20T09:52:20.718Z,20.57
2019-04-20T09:54:58.025Z,20.40
2019-04-20T09:57:32.249Z,20.34
2019-04-20T09:59:59.877Z,20.45
2019-04-20T10:02:17.867Z,20.57
2019-04-20T10:04:39.695Z,20.56
2019-04-20T10:07:12.922Z,20.37
2019-04-20T10:09:39.853Z,20.57
2019-04-20T10:12:07.906Z,20.48
2019-04-20T10:14:36.127Z,20.79
2019-04-20T10:17:03.582Z,20.69
2019-04-20T10:19:34.021Z,20.75
2019-04-20T10:22:00.376Z,20.91
2019-04-20T10:24:28.513Z,20.90
2019-04-20T10:26:56.592Z,20.92
2019-04-20T10:29:23.922Z,20.93
2019-04-20T10:31:55.600Z,20.83
2019-04-20T10:34:23.693Z,20.78
2019-04-20T10:37:09.427Z,20.64
2019-04-20T10:39:40.554Z,20.77
2019-04-20T10:42:08.186Z,20.84
2019-04-20T10:44:36.702Z,21.05
2019-04-20T10:47:05.010Z,20.99
2019-04-20T10:49:33.278Z,20.93
2019-04-20T10:52:01.708Z,21.11
2019-04-20T10:54:30.278Z,20.84
2019-04-20T10:56:57.761Z,21.05
2019-04-20T10:59:27.750Z,20.88
2019-04-20T11:01:55.921Z,21.00
2019-04-20T11:04:23.283Z,21.01
2019-04-20T11:06:50.643Z,21.22
2019-04-20T11:09:18.472Z,21.29
2019-04-20T11:11:46.180Z,21.30
2019-04-20T11:14:22.818Z,21.36
2019-04-20T11:16:42.758Z,21.50
2019-04-20T11:19:11.521Z,21.51
2019-04-20T11:21:38.963Z,21.44
2019-04-20T11:24:06.331Z,21.63
2019-04-20T11:26:36.510Z,21.67
2019-04-20T11:29:04.207Z,21.79
2019-04-20T11:31:38.040Z,21.93
2019-04-20T11:34:01.329Z,21.86
2019-04-20T11:36:28.783Z,21.75
2019-04-20T11:38:56.720Z,21.65
2019-04-20T11:41:27.675Z,21.73
2019-04-20T11:43:53.789Z,21.77
2019-04-20T11:46:22.730Z,21.61
2019-04-20T11:48:50.076Z,21.63
2019-04-20T11:51:18.982Z,21.71
2019-04-20T11:53:46.536Z,21.71
2019-04-20T11:56:20.219Z,21.73
2019-04-20T11:58:43.038Z,21.88
2019-04-20T12:01:39.252Z,21.75
2019-04-20T12:04:02.948Z,21.78
2019-04-20T12:06:28.790Z,21.74
2019-04-20T12:08:57.036Z,21.72
2019-04-20T12:11:36.111Z,21.82
2019-04-20T12:13:54.574Z,21.72
2019-04-20T12:16:21.850Z,21.71
2019-04-20T12:18:50.213Z,22.02
2019-04-20T12:21:18.938Z,21.73
2019-04-20T12:23:46.524Z,21.95
2019-04-20T12:26:14.839Z,21.82
2019-04-20T12:28:43.457Z,21.73
2019-04-20T12:31:15.369Z,21.96
2019-04-20T12:33:40.275Z,21.91
2019-04-20T12:36:10.245Z,21.95
2019-04-20T12:38:39.042Z,21.89
2019-04-20T12:41:08.373Z,22.04
2019-04-20T12:43:35.997Z,22.15
2019-04-20T12:46:03.648Z,22.42
2019-04-20T12:48:31.472Z,22.36
2019-04-20T12:50:59.477Z,22.32
2019-04-20T12:53:26.897Z,22.06
2019-04-20T12:55:54.748Z,22.16
2019-04-20T12:58:22.836Z,22.22
2019-04-20T13:00:52.278Z,22.30
2019-04-20T13:03:19.792Z,22.30
2019-04-20T13:05:47.870Z,22.25
2019-04-20T13:08:23.255Z,22.27
2019-04-20T13:10:50.704Z,22.00
2019-04-20T13:13:28.139Z,21.80
2019-04-20T13:16:08.216Z,21.78
2019-04-20T13:18:43.362Z,21.78
2019-04-20T13:21:11.165Z,21.69
2019-04-20T13:23:38.521Z,21.66
2019-04-20T13:26:08.757Z,21.52
2019-04-20T13:28:35.041Z,21.26
2019-04-20T13:31:03.856Z,21.15
2019-04-20T13:33:31.531Z,21.10
2019-04-20T13:35:59.012Z,21.26
2019-04-20T13:38:26.423Z,21.12
2019-04-20T13:40:55.732Z,21.16
2019-04-20T13:43:23.804Z,21.29
2019-04-20T13:45:51.162Z,21.21
2019-04-20T13:48:19.254Z,21.20
2019-04-20T13:50:46.637Z,21.18
2019-04-20T13:53:14.956Z,21.04
2019-04-20T13:55:43.584Z,21.05
2019-04-20T13:58:31.580Z,21.15
2019-04-20T14:01:34.724Z,20.85
2019-04-20T14:04:16.901Z,21.00
2019-04-20T14:06:45.653Z,20.73
2019-04-20T14:09:13.045Z,20.84
2019-04-20T14:11:41.404Z,20.70
2019-04-20T14:14:09.090Z,20.69
2019-04-20T14:16:45.217Z,20.49
2019-04-20T14:19:14.288Z,20.67
2019-04-20T14:21:41.813Z,20.66
2019-04-20T14:24:09.264Z,20.79
2019-04-20T14:26:40.314Z,20.77
2019-04-20T14:29:07.163Z,20.89
2019-04-20T14:31:35.193Z,20.79
2019-04-20T14:34:02.726Z,20.84
2019-04-20T14:36:30.796Z,20.98
2019-04-20T14:38:58.357Z,21.01
2019-04-20T14:41:28.440Z,21.09
2019-04-20T14:43:57.198Z,21.24
2019-04-20T14:46:27.917Z,21.10
2019-04-20T14:48:56.581Z,21.01
2019-04-20T14:51:26.046Z,21.06
2019-04-20T14:53:53.822Z,20.84
2019-04-20T14:56:21.164Z,20.68
2019-04-20T14:58:55.664Z,20.78
2019-04-20T15:01:28.383Z,20.66
2019-04-20T15:04:02.838Z,20.77
2019-04-20T15:06:25.615Z,20.72
2019-04-20T15:08:52.844Z,20.81
2019-04-20T15:11:20.921Z,20.69
2019-04-20T15:13:48.915Z,20.74
2019-04-20T15:16:17.017Z,20.70
2019-04-20T15:19:07.561Z,20.65
2019-04-20T15:21:35.601Z,20.59
2019-04-20T15:24:05.942Z,20.64
2019-04-20T15:26:34.260Z,20.47
2019-04-20T15:29:02.153Z,20.55
2019-04-20T15:31:30.114Z,20.36
2019-04-20T15:33:57.592Z,20.32
2019-04-20T15:36:26.278Z,20.20
2019-04-20T15:38:53.614Z,20.25
2019-04-20T15:41:20.956Z,20.52
2019-04-20T15:43:49.125Z,20.26
2019-04-20T15:46:17.237Z,20.10
2019-04-20T15:48:46.060Z,20.19
2019-04-20T15:51:14.153Z,20.00
2019-04-20T15:53:41.794Z,20.19
2019-04-20T15:56:11.591Z,20.06
2019-04-20T15:58:38.733Z,20.05
2019-04-20T16:01:08.304Z,20.01
2019-04-20T16:03:43.354Z,20.03
2019-04-20T16:06:11.539Z,19.96
2019-04-20T16:08:39.625Z,19.79
2019-04-20T16:11:07.158Z,19.74
2019-04-20T16:13:39.592Z,19.82
2019-04-20T16:16:05.827Z,19.80
2019-04-20T16:18:34.828Z,19.71
2019-04-20T16:21:07.973Z,19.71
2019-04-20T16:23:40.773Z,19.93
2019-04-20T16:26:21.809Z,19.89
2019-04-20T16:28:50.120Z,19.77
2019-04-20T16:31:18.363Z,19.60
2019-04-20T16:33:46.469Z,19.65
2019-04-20T16:36:14.551Z,19.53
2019-04-20T16:38:41.910Z,19.60
2019-04-20T16:41:10.441Z,19.70
2019-04-20T16:43:41.474Z,19.77
2019-04-20T16:46:06.980Z,19.80
2019-04-20T16:48:34.251Z,19.85
2019-04-20T16:51:02.925Z,19.63
2019-04-20T16:53:30.947Z,19.51
2019-04-20T16:55:58.959Z,19.62
2019-04-20T16:58:26.434Z,19.33
2019-04-20T17:00:53.898Z,19.35
2019-04-20T17:03:24.221Z,19.37
2019-04-20T17:05:51.420Z,19.38
2019-04-20T17:08:18.938Z,19.40
2019-04-20T17:10:46.628Z,19.22
2019-04-20T17:13:13.985Z,19.22
2019-04-20T17:15:41.517Z,19.29
2019-04-20T17:18:09.640Z,19.06
2019-04-20T17:20:37.036Z,19.00
2019-04-20T17:23:07.021Z,18.86
2019-04-20T17:25:34.345Z,19.00
2019-04-20T17:28:20.723Z,18.90
2019-04-20T17:31:03.068Z,18.81
2019-04-20T17:34:02.603Z,18.76
2019-04-20T17:36:24.944Z,18.80
2019-04-20T17:38:54.159Z,18.44
2019-04-20T17:41:43.255Z,18.40
2019-04-20T17:44:07.240Z,18.39
2019-04-20T17:46:27.331Z,18.38
2019-04-20T17:49:03.205Z,18.14
2019-04-20T17:51:34.531Z,18.05
2019-04-20T17:54:06.839Z,17.96
2019-04-20T17:56:38.431Z,17.84
2019-04-20T17:59:06.177Z,17.76
2019-04-20T18:02:11.940Z,17.56
2019-04-20T18:05:14.225Z,17.49
2019-04-20T18:07:41.256Z,17.53
2019-04-20T18:10:09.167Z,17.19
2019-04-20T18:12:26.836Z,17.24
2019-04-20T18:15:00.813Z,16.89
2019-04-20T18:18:08.405Z,17.12
2019-04-20T18:20:52.597Z,17.08
2019-04-20T18:23:25.502Z,16.80
2019-04-20T18:26:21.253Z,16.74
2019-04-20T18:28:32.314Z,16.70
2019-04-20T18:30:59.263Z,16.55
2019-04-20T18:33:29.908Z,16.49
2019-04-20T18:35:54.053Z,16.48
2019-04-20T18:38:21.994Z,16.49
2019-04-20T18:41:00.415Z,16.32
2019-04-20T18:43:23.941Z,16.32
2019-04-20T18:46:10.705Z,16.22
2019-04-20T18:48:43.926Z,16.17
2019-04-20T18:50:50.358Z,15.89
2019-04-20T18:53:28.373Z,15.78
2019-04-20T18:55:55.474Z,15.94
2019-04-20T18:58:19.164Z,15.83
2019-04-20T19:00:51.731Z,15.81
2019-04-20T19:03:27.012Z,15.65
2019-04-20T19:05:47.487Z,15.60
2019-04-20T19:08:16.287Z,15.45
2019-04-20T19:10:52.268Z,15.35
2019-04-20T19:13:44.643Z,15.34
2019-04-20T19:16:32.658Z,15.47
2019-04-20T19:19:20.164Z,15.42
2019-04-20T19:21:37.376Z,15.20
2019-04-20T19:24:10.978Z,15.29
2019-04-20T19:26:34.342Z,15.16
2019-04-20T19:29:13.393Z,15.17
2019-04-20T19:31:45.389Z,15.06
2019-04-20T19:34:19.042Z,14.92
2019-04-20T19:36:36.936Z,15.06
2019-04-20T19:39:17.253Z,15.06
2019-04-20T19:41:39.169Z,14.93
2019-04-20T19:44:10.309Z,14.63
2019-04-20T19:49:07.894Z,14.53
2019-04-20T19:51:49.265Z,14.57
2019-04-20T19:54:17.918Z,14.50
2019-04-20T19:56:41.425Z,14.52
2019-04-20T19:59:09.231Z,14.46
2019-04-20T20:01:23.903Z,14.42
2019-04-20T20:03:57.510Z,14.40
2019-04-20T20:06:29.098Z,14.49
2019-04-20T20:08:55.758Z,14.41
2019-04-20T20:11:29.488Z,14.26
2019-04-20T20:13:53.091Z,14.20
2019-04-20T20:16:27.192Z,13.94
2019-04-20T20:18:58.878Z,13.97
2019-04-20T20:21:27.269Z,13.89
2019-04-20T20:23:47.944Z,13.95
2019-04-20T20:26:23.106Z,13.97
2019-04-20T20:28:51.814Z,13.92
2019-04-20T20:31:23.306Z,13.65
2019-04-20T20:33:58.107Z,13.55
2019-04-20T20:36:19.359Z,13.48
2019-04-20T20:38:48.084Z,13.30
2019-04-20T20:41:18.375Z,13.27
2019-04-20T20:43:53.942Z,13.04
2019-04-20T20:46:19.453Z,12.85
2019-04-20T20:49:03.423Z,12.70
2019-04-20T20:51:34.623Z,12.84
2019-04-20T20:53:50.949Z,12.90
2019-04-20T20:56:15.032Z,12.94
2019-04-20T20:58:49.727Z,12.97
2019-04-20T21:01:15.714Z,12.94
2019-04-20T21:03:40.329Z,12.87
2019-04-20T21:06:03.528Z,12.90
2019-04-20T21:08:31.438Z,12.92
2019-04-20T21:11:00.151Z,12.78
2019-04-20T21:13:33.283Z,12.63
2019-04-20T21:16:02.547Z,12.62
2019-04-20T21:18:43.493Z,12.58
2019-04-20T21:21:11.440Z,12.50
2019-04-20T21:23:37.026Z,12.54
2019-04-20T21:26:07.055Z,12.53
2019-04-20T21:28:36.317Z,12.48
2019-04-20T21:31:11.617Z,12.44
2019-04-20T21:33:37.782Z,12.45
2019-04-20T21:36:03.349Z,12.34
2019-04-20T21:38:35.897Z,12.30
2019-04-20T21:41:07.476Z,12.31
2019-04-20T21:43:33.844Z,12.25
2019-04-20T21:46:03.220Z,12.23
2019-04-20T21:48:48.943Z,12.08
2019-04-20T21:51:13.366Z,12.08
2019-04-20T21:53:30.500Z,12.00
2019-04-20T21:55:55.336Z,11.94
2019-04-20T21:58:27.993Z,11.85
2019-04-20T22:01:10.825Z,11.70
2019-04-20T22:03:27.566Z,11.79
2019-04-20T22:06:06.809Z,11.84
2019-04-20T22:08:34.672Z,11.77
2019-04-20T22:11:03.850Z,11.73
2019-04-20T22:13:38.041Z,11.83
2019-04-20T22:16:07.310Z,11.80
2019-04-20T22:18:47.377Z,11.86
2019-04-20T22:21:14.172Z,11.80
2019-04-20T22:23:50.341Z,11.73
2019-04-20T22:26:12.035Z,11.64
2019-04-20T22:28:29.890Z,11.65
2019-04-20T22:30:57.982Z,11.62
2019-04-20T22:33:33.617Z,11.67
2019-04-20T22:36:02.192Z,11.66
2019-04-20T22:38:58.124Z,11.70
2019-04-20T22:41:25.768Z,11.66
2019-04-20T22:43:54.646Z,11.59
2019-04-20T22:46:25.812Z,11.56
2019-04-20T22:49:06.946Z,11.48
2019-04-20T22:51:37.102Z,11.52
2019-04-20T22:54:10.974Z,11.45
2019-04-20T22:56:35.685Z,11.52
2019-04-20T22:58:57.535Z,11.61
2019-04-20T23:01:27.555Z,11.56
2019-04-20T23:03:46.834Z,11.54
2019-04-20T23:06:14.590Z,11.49
2019-04-20T23:08:42.510Z,11.36
2019-04-20T23:11:20.334Z,11.50
2019-04-20T23:13:41.865Z,11.52
2019-04-20T23:16:09.269Z,11.45
2019-04-20T23:18:37.981Z,11.42
2019-04-20T23:21:10.423Z,11.32
2019-04-20T23:23:35.554Z,11.38
2019-04-20T23:26:03.333Z,11.34
2019-04-20T23:28:31.320Z,11.33
2019-04-20T23:31:03.860Z,11.33
2019-04-20T23:33:27.862Z,11.39
2019-04-20T23:35:58.249Z,11.29
2019-04-20T23:38:24.838Z,11.26
2019-04-20T23:40:52.292Z,11.01
2019-04-20T23:43:28.211Z,11.00
2019-04-20T23:46:25.786Z,11.21
2019-04-20T23:49:18.861Z,11.14
2019-04-20T23:52:00.690Z,11.15
2019-04-20T23:54:13.831Z,11.12
2019-04-20T23:56:37.509Z,11.17
2019-04-20T23:59:06.377Z,11.01
